Погода Хлябовона 2 недели

Тверская область, Россия

19 мая-01 июня
  • 19мая
    Сегодня
    +7°
    +21°
    Ясно и безоблачно
    ВремяПогодаТемператураВлажностьДавлениеВетер, м/сВероятность осадков
    00:00Ясно и безоблачно+8°C61 %753 мм0.3 м/с2 %
    03:00Ясно и безоблачно+5°C76 %754 мм0.7 м/с2 %
    06:00Ясно и безоблачно+8°C77 %754 мм0.7 м/с2 %
    09:00Ясно и безоблачно+16°C60 %754 мм1.6 м/с2 %
    12:00Ясно и безоблачно+20°C41 %753 мм2.1 м/с2 %
    15:00Ясно и безоблачно+21°C40 %752 мм2.2 м/с2 %
    18:00Ясно и безоблачно+20°C43 %751 мм1.8 м/с2 %
    21:00Ясно и безоблачно+13°C59 %751 мм0.7 м/с2 %
  • 20мая
    Понедельник
    +9°
    +24°
    Практически безоблачно
    ВремяПогодаТемператураВлажностьДавлениеВетер, м/сВероятность осадков
    00:00Ясно и безоблачно+10°C60 %751 мм1.0 м/с2 %
    03:00Ясно и безоблачно+8°C74 %750 мм1.2 м/с2 %
    06:00Ясно и безоблачно+10°C77 %750 мм1.3 м/с2 %
    09:00Ясно и безоблачно+18°C64 %750 мм1.8 м/с2 %
    12:00Ясно и безоблачно+22°C52 %750 мм2.1 м/с2 %
    15:00Практически безоблачно+23°C42 %750 мм2.5 м/с6 %
    18:00Небольшая облачность+22°C47 %749 мм1.8 м/с15 %
    21:00Небольшая облачность+15°C67 %750 мм0.3 м/с6 %
  • 21мая
    Вторник
    +6°
    +21°
    Практически безоблачно
    ВремяПогодаТемператураВлажностьДавлениеВетер, м/сВероятность осадков
    00:00Ясно и безоблачно+12°C86 %750 мм0.6 м/с2 %
    03:00Ясно и безоблачно+10°C95 %751 мм0.6 м/с1 %
    06:00Ясно и безоблачно+12°C95 %752 мм0.5 м/с3 %
    09:00Небольшая облачность+18°C76 %752 мм0.9 м/с6 %
    12:00Практически безоблачно+20°C65 %752 мм1.5 м/с22 %
    15:00Практически безоблачно+21°C53 %752 мм1.6 м/с26 %
    18:00Облачно с прояснениями+19°C51 %752 мм1.5 м/с16 %
    21:00Практически безоблачно+14°C49 %753 мм0.5 м/с3 %
  • 22мая
    Среда
    +4°
    +19°
    Ясно и безоблачно
    ВремяПогодаТемператураВлажностьДавлениеВетер, м/сВероятность осадков
    00:00Практически безоблачно+9°C60 %753 мм0.1 м/с2 %
    03:00Ясно и безоблачно+7°C64 %753 мм0.8 м/с2 %
    06:00Ясно и безоблачно+9°C67 %754 мм0.9 м/с2 %
    09:00Ясно и безоблачно+16°C55 %755 мм1.6 м/с2 %
    12:00Ясно и безоблачно+18°C43 %756 мм2.4 м/с2 %
    15:00Ясно и безоблачно+18°C39 %756 мм2.6 м/с2 %
    18:00Ясно и безоблачно+17°C36 %756 мм2.4 м/с2 %
    21:00Ясно и безоблачно+11°C44 %757 мм0.8 м/с2 %
  • 23мая
    Четверг
    +3°
    +17°
    Ясно и безоблачно
    ВремяПогодаТемператураВлажностьДавлениеВетер, м/сВероятность осадков
    00:00Ясно и безоблачно+7°C51 %759 мм0.8 м/с2 %
    03:00Ясно и безоблачно+5°C56 %759 мм0.7 м/с2 %
    06:00Ясно и безоблачно+6°C62 %761 мм0.8 м/с2 %
    09:00Ясно и безоблачно+13°C36 %762 мм1.5 м/с2 %
    12:00Ясно и безоблачно+16°C34 %762 мм1.8 м/с2 %
    15:00Ясно и безоблачно+16°C35 %761 мм1.3 м/с2 %
    18:00Ясно и безоблачно+16°C35 %760 мм1.0 м/с2 %
    21:00Ясно и безоблачно+9°C60 %760 мм0.1 м/с2 %
Мы используем cookies
Соглашаюсь